Time;durP1;ratioP1;P1;durP2;ratioP2;P2;SDS_P1;SDS_P2;PMS_P1;PMS_P2;Temp;Humidity;BMP_temperature;BMP_pressure;BME280_temperature;BME280_humidity;BME280_pressure;Samples;Min_cycle;Max_cycle;Signal;HPM_P1;HPM_P2
2021/08/02 00:01:57;;;;;;;14.33;9.53;;;;;;;14.65;82.07;99400.97;2092367;83;21063;-71
2021/08/02 00:05:03;;;;;;;15.13;11.22;;;;;;;14.64;81.98;99396.67;2083672;83;21812;-70
2021/08/02 00:08:04;;;;;;;12.40;9.50;;;;;;;14.61;81.93;99382.38;2098224;82;21023;-74
2021/08/02 00:11:07;;;;;;;14.98;10.60;;;;;;;14.60;81.86;99389.28;2087539;82;21032;-71
2021/08/02 00:14:09;;;;;;;13.30;10.28;;;;;;;14.56;81.81;99388.37;2092711;83;21632;-71
2021/08/02 00:17:11;;;;;;;12.15;10.82;;;;;;;14.53;81.77;99394.13;2096205;82;21524;-71
2021/08/02 00:20:20;;;;;;;13.43;10.00;;;;;;;14.52;81.71;99405.00;2091575;82;21533;-71
2021/08/02 00:23:24;;;;;;;19.85;11.20;;;;;;;14.48;81.68;99410.44;2102304;83;21600;-71
2021/08/02 00:26:26;;;;;;;15.32;9.85;;;;;;;14.43;81.69;99405.72;2089617;82;21065;-74
2021/08/02 00:29:30;;;;;;;14.73;10.85;;;;;;;14.39;81.72;99396.98;2076505;83;21048;-73
2021/08/02 00:32:33;;;;;;;20.43;10.35;;;;;;;14.35;81.70;99396.59;2089413;83;21109;-71
2021/08/02 00:35:52;;;;;;;12.90;10.32;;;;;;;14.31;81.65;99396.20;2088198;82;21091;-70
2021/08/02 00:39:33;;;;;;;13.72;10.55;;;;;;;14.27;81.62;99401.63;2071791;82;21047;-70
2021/08/02 00:43:19;;;;;;;16.15;9.98;;;;;;;14.24;81.64;99406.05;2087701;82;21081;-71
2021/08/02 00:46:31;;;;;;;16.80;8.93;;;;;;;14.22;81.59;99404.62;2092404;82;21063;-70
2021/08/02 00:49:36;;;;;;;13.22;8.85;;;;;;;14.17;81.52;99399.92;2083231;82;21077;-71
2021/08/02 00:52:49;;;;;;;13.08;9.25;;;;;;;14.12;81.47;99399.20;2072532;83;21546;-71
2021/08/02 00:55:56;;;;;;;17.02;9.48;;;;;;;14.07;81.44;99403.52;2083764;82;21512;-73
2021/08/02 00:59:03;;;;;;;11.20;8.53;;;;;;;14.01;81.38;99405.68;2088781;82;21084;-72
2021/08/02 01:02:07;;;;;;;9.30;8.28;;;;;;;13.98;81.43;99402.09;2087759;83;21141;-75
2021/08/02 01:05:13;;;;;;;12.55;9.20;;;;;;;13.95;81.46;99402.51;2077502;83;21591;-72
2021/08/02 01:08:25;;;;;;;10.08;8.40;;;;;;;13.92;81.44;99405.59;2100092;83;21477;-71
2021/08/02 01:11:29;;;;;;;13.18;8.03;;;;;;;13.87;81.34;99407.01;2100741;82;21032;-70
2021/08/02 01:14:35;;;;;;;15.72;8.68;;;;;;;13.82;81.36;99408.13;2083673;83;21117;-70
2021/08/02 01:17:37;;;;;;;12.30;8.90;;;;;;;13.82;81.51;99409.47;2096666;82;21075;-71
2021/08/02 01:20:48;;;;;;;20.52;9.05;;;;;;;13.81;81.56;99403.02;2089746;82;21074;-70
2021/08/02 01:23:51;;;;;;;20.07;9.30;;;;;;;13.82;81.63;99408.13;2087360;83;21699;-71
2021/08/02 01:27:09;;;;;;;15.68;8.75;;;;;;;13.80;81.64;99407.54;2022870;86;21397;-73
2021/08/02 01:30:20;;;;;;;12.15;9.03;;;;;;;13.79;81.65;99409.88;2047889;84;21005;-71
2021/08/02 01:33:30;;;;;;;12.63;8.88;;;;;;;13.78;81.66;99413.58;2045907;84;21015;-71
2021/08/02 01:36:33;;;;;;;16.70;8.60;;;;;;;13.76;81.68;99414.29;2103438;82;21049;-73
2021/08/02 01:39:37;;;;;;;14.98;8.23;;;;;;;13.75;81.76;99417.99;2096851;82;21528;-73
2021/08/02 01:42:40;;;;;;;17.10;9.78;;;;;;;13.74;81.73;99424.36;2089812;83;21067;-74
2021/08/02 01:46:03;;;;;;;18.87;8.53;;;;;;;13.68;81.75;99431.81;2095716;82;21050;-72
2021/08/02 01:49:26;;;;;;;20.10;9.38;;;;;;;13.66;81.88;99434.70;2087359;83;21000;-72
2021/08/02 01:52:36;;;;;;;13.85;9.13;;;;;;;13.64;81.96;99429.26;2083577;82;21787;-70
2021/08/02 01:55:40;;;;;;;16.85;8.75;;;;;;;13.62;81.98;99427.30;2094359;82;21158;-71
2021/08/02 01:58:52;;;;;;;9.78;8.35;;;;;;;13.60;82.00;99432.00;2088600;83;21073;-74
2021/08/02 02:02:08;;;;;;;16.05;8.85;;;;;;;13.59;82.06;99429.86;2075246;83;21053;-73
2021/08/02 02:05:19;;;;;;;12.90;8.48;;;;;;;13.55;82.03;99427.82;2085228;82;21143;-71
2021/08/02 02:08:32;;;;;;;14.87;9.28;;;;;;;13.50;82.16;99423.60;2116581;82;21557;-73
2021/08/02 02:11:46;;;;;;;16.65;8.00;;;;;;;13.44;82.21;99421.23;2092595;83;21085;-71
2021/08/02 02:14:56;;;;;;;13.32;7.55;;;;;;;13.43;82.34;99421.75;2093071;82;21599;-72
2021/08/02 02:18:00;;;;;;;11.57;7.42;;;;;;;13.42;82.37;99427.27;2068999;83;21050;-71
2021/08/02 02:21:04;;;;;;;18.70;7.92;;;;;;;13.41;82.39;99423.79;2101362;82;21115;-70
2021/08/02 02:24:07;;;;;;;13.58;7.95;;;;;;;13.43;82.46;99430.23;2101504;82;21129;-70
2021/08/02 02:27:10;;;;;;;17.62;7.97;;;;;;;13.43;82.50;99431.08;2088647;82;21916;-73
2021/08/02 02:30:14;;;;;;;16.25;7.67;;;;;;;13.45;82.53;99435.67;2099672;82;21522;-72
2021/08/02 02:33:17;;;;;;;11.57;6.72;;;;;;;13.45;82.47;99434.34;2099379;82;20986;-72
2021/08/02 02:36:20;;;;;;;12.78;7.65;;;;;;;13.47;82.48;99428.01;2091341;83;21597;-72
2021/08/02 02:39:23;;;;;;;12.05;7.12;;;;;;;13.47;82.39;99426.16;2087879;83;21008;-72
2021/08/02 02:42:26;;;;;;;15.48;7.10;;;;;;;13.46;82.45;99431.19;2089321;82;21084;-71
2021/08/02 02:45:28;;;;;;;14.60;6.75;;;;;;;13.49;82.50;99434.78;2098833;82;21046;-71
2021/08/02 02:48:31;;;;;;;15.63;7.12;;;;;;;13.51;82.40;99438.05;2104064;82;21550;-71
2021/08/02 02:51:34;;;;;;;14.10;7.35;;;;;;;13.53;82.37;99444.00;2096954;82;21024;-72
2021/08/02 02:54:38;;;;;;;12.10;7.15;;;;;;;13.52;82.40;99449.03;2087685;82;21988;-71
2021/08/02 02:57:40;;;;;;;12.10;7.12;;;;;;;13.55;82.42;99453.14;2093009;83;21184;-73
2021/08/02 03:00:44;;;;;;;12.13;7.20;;;;;;;13.56;82.44;99451.59;2074923;82;21658;-70
2021/08/02 03:03:51;;;;;;;14.23;7.20;;;;;;;13.57;82.46;99455.07;2080927;83;21614;-73
2021/08/02 03:06:55;;;;;;;17.48;7.47;;;;;;;13.57;82.47;99451.92;2081717;82;21033;-72
2021/08/02 03:09:58;;;;;;;11.83;7.72;;;;;;;13.60;82.51;99450.66;2093214;82;21051;-72
2021/08/02 03:13:00;;;;;;;11.78;7.35;;;;;;;13.62;82.56;99453.95;2095747;82;21111;-72
2021/08/02 03:16:02;;;;;;;13.13;7.75;;;;;;;13.63;82.59;99459.10;2088679;83;21105;-71
2021/08/02 03:19:03;;;;;;;12.30;7.58;;;;;;;13.63;82.53;99469.77;2097152;83;21049;-70
2021/08/02 03:22:16;;;;;;;12.58;7.80;;;;;;;13.65;82.61;99469.55;2092799;82;21029;-72
2021/08/02 03:25:35;;;;;;;11.75;7.72;;;;;;;13.65;82.58;99474.87;2090385;82;22338;-72
2021/08/02 03:29:02;;;;;;;10.00;7.40;;;;;;;13.67;82.65;99479.50;2094562;83;21025;-71
2021/08/02 03:32:12;;;;;;;17.70;7.62;;;;;;;13.71;82.75;99483.39;2094056;82;21052;-72
2021/08/02 03:35:17;;;;;;;13.10;8.88;;;;;;;13.72;82.70;99482.91;2095043;82;21013;-71
2021/08/02 03:38:20;;;;;;;13.55;7.95;;;;;;;13.77;82.72;99484.42;2088684;83;21012;-74
2021/08/02 03:41:22;;;;;;;16.50;7.50;;;;;;;13.77;82.63;99489.27;2094015;82;21086;-72
2021/08/02 03:44:25;;;;;;;10.15;7.12;;;;;;;13.78;82.67;99492.23;2092690;82;21138;-72
2021/08/02 03:47:27;;;;;;;12.05;7.78;;;;;;;;;;2084003;82;21046;-71
2021/08/02 03:50:29;;;;;;;13.05;7.75;;;;;;;13.73;82.81;99498.69;2092011;82;21841;-71
2021/08/02 03:53:46;;;;;;;15.38;7.53;;;;;;;13.74;82.86;99502.16;2090628;82;21045;-74
2021/08/02 03:56:47;;;;;;;13.75;8.00;;;;;;;13.75;82.91;99505.98;2087894;82;21159;-70
2021/08/02 03:59:51;;;;;;;18.10;8.60;;;;;;;13.76;82.85;99511.61;2075587;82;21091;-73
2021/08/02 04:02:52;;;;;;;11.83;8.75;;;;;;;13.79;82.91;99513.05;2093592;82;21080;-71
2021/08/02 04:05:54;;;;;;;10.20;8.28;;;;;;;13.83;82.91;99523.12;2079496;83;21014;-71
2021/08/02 04:08:56;;;;;;;10.95;7.70;;;;;;;13.88;82.89;99530.49;2090780;83;21036;-74
2021/08/02 04:11:58;;;;;;;13.60;8.85;;;;;;;13.92;82.94;99524.27;2103388;82;21028;-71
2021/08/02 04:15:00;;;;;;;12.47;8.05;;;;;;;13.97;82.92;99527.15;2102618;82;22003;-71
2021/08/02 04:18:03;;;;;;;12.03;8.68;;;;;;;14.00;82.99;99534.75;2095737;83;21029;-71
2021/08/02 04:21:04;;;;;;;9.63;7.67;;;;;;;14.05;82.97;99538.45;2088457;83;21570;-70
2021/08/02 04:24:06;;;;;;;14.23;8.18;;;;;;;14.06;82.95;99538.74;2094589;82;21137;-70
2021/08/02 04:27:08;;;;;;;12.37;8.18;;;;;;;14.10;82.93;99547.15;2092714;82;21033;-71
2021/08/02 04:30:10;;;;;;;13.22;8.80;;;;;;;14.11;82.90;99552.30;2079754;83;21062;-74
2021/08/02 04:33:12;;;;;;;10.70;7.90;;;;;;;14.14;82.94;99552.41;2085330;82;21659;-70
2021/08/02 04:36:13;;;;;;;10.50;8.50;;;;;;;14.17;82.93;99557.33;2090031;83;21044;-73
2021/08/02 04:39:15;;;;;;;10.28;8.48;;;;;;;14.18;82.94;99560.30;2062852;83;21083;-70
2021/08/02 04:42:16;;;;;;;14.05;8.85;;;;;;;14.19;82.89;99561.11;2090960;82;21018;-70
2021/08/02 04:45:18;;;;;;;11.90;8.20;;;;;;;14.20;82.95;99560.92;2087876;82;21069;-72
2021/08/02 04:48:19;;;;;;;11.00;8.63;;;;;;;14.24;82.97;99576.00;2091257;82;21072;-74
2021/08/02 04:51:21;;;;;;;10.95;7.58;;;;;;;14.27;82.94;99572.93;2098123;82;21049;-71
2021/08/02 04:54:22;;;;;;;9.30;8.35;;;;;;;14.29;82.99;99585.05;2090563;83;21581;-74
2021/08/02 04:57:24;;;;;;;13.68;8.70;;;;;;;14.33;83.02;99592.97;2085877;82;21544;-72
2021/08/02 05:00:25;;;;;;;15.13;8.85;;;;;;;14.41;83.06;99597.78;2094061;82;20962;-70
2021/08/02 05:03:27;;;;;;;10.60;8.40;;;;;;;14.46;83.10;99593.99;2090144;82;21046;-72
2021/08/02 05:06:28;;;;;;;14.43;8.75;;;;;;;14.53;83.08;99600.20;2089898;83;21114;-75
2021/08/02 05:09:30;;;;;;;11.20;8.08;;;;;;;14.59;83.01;99599.38;2087693;83;21073;-70
2021/08/02 05:12:31;;;;;;;9.03;7.10;;;;;;;14.65;83.04;99597.21;2087180;82;21168;-74
2021/08/02 05:15:34;;;;;;;12.05;7.25;;;;;;;14.73;83.03;99605.02;2079668;83;21018;-70
2021/08/02 05:18:35;;;;;;;16.70;7.42;;;;;;;14.78;82.90;99607.90;2090385;82;21060;-74
2021/08/02 05:21:38;;;;;;;9.38;7.58;;;;;;;14.84;82.89;99615.59;2101206;82;21584;-72
2021/08/02 05:24:39;;;;;;;11.30;7.20;;;;;;;14.90;82.88;99612.61;2071620;83;21112;-70
2021/08/02 05:27:52;;;;;;;10.70;7.85;;;;;;;14.91;82.74;99612.91;2088940;83;21081;-74
2021/08/02 05:30:54;;;;;;;13.55;7.50;;;;;;;14.93;82.76;99620.21;2080623;83;21109;-72
2021/08/02 05:33:55;;;;;;;8.68;7.10;;;;;;;14.94;82.61;99619.17;2094264;82;21048;-71
2021/08/02 05:36:57;;;;;;;10.15;7.45;;;;;;;14.98;82.84;99625.76;2081366;82;21064;-75
2021/08/02 05:39:58;;;;;;;12.15;7.55;;;;;;;14.96;82.66;99618.45;2086362;83;21031;-72
2021/08/02 05:43:00;;;;;;;12.35;6.95;;;;;;;15.00;82.52;99617.81;2079632;82;21048;-72
2021/08/02 05:46:01;;;;;;;9.68;7.30;;;;;;;15.00;82.46;99615.14;2077954;83;21039;-71
2021/08/02 05:49:07;;;;;;;12.40;7.30;;;;;;;15.07;82.48;99613.81;2092277;82;21100;-70
2021/08/02 05:52:08;;;;;;;8.93;6.92;;;;;;;15.12;82.43;99616.69;2092132;83;21585;-69
2021/08/02 05:55:12;;;;;;;9.23;6.87;;;;;;;15.20;82.34;99619.14;2104532;82;21164;-72
2021/08/02 05:58:14;;;;;;;14.43;6.58;;;;;;;15.31;82.38;99622.19;2085221;82;21063;-75
2021/08/02 06:01:16;;;;;;;9.80;7.90;;;;;;;15.35;82.08;99624.77;2095595;82;21129;-75
2021/08/02 06:04:17;;;;;;;11.65;7.30;;;;;;;15.42;81.99;99627.70;2084829;82;21164;-74
2021/08/02 06:07:20;;;;;;;7.55;6.80;;;;;;;15.49;82.06;99634.91;2083778;83;21082;-76
2021/08/02 06:10:21;;;;;;;8.20;6.33;;;;;;;15.56;81.98;99636.50;2091138;82;21755;-72
2021/08/02 06:13:22;;;;;;;8.93;6.45;;;;;;;15.65;81.94;99643.28;2089972;82;21085;-74
2021/08/02 06:16:24;;;;;;;9.18;6.83;;;;;;;15.69;81.61;99645.04;2095451;82;21057;-75
2021/08/02 06:19:26;;;;;;;9.58;6.33;;;;;;;15.73;81.59;99644.91;2104236;82;21100;-74
2021/08/02 06:22:27;;;;;;;8.70;6.00;;;;;;;15.77;81.41;99643.96;2091406;82;21568;-75
2021/08/02 06:25:29;;;;;;;8.40;6.12;;;;;;;15.86;81.36;99646.20;2106524;82;21513;-71
2021/08/02 06:28:31;;;;;;;8.43;5.97;;;;;;;15.99;81.02;99647.16;2095194;82;21139;-72
2021/08/02 06:31:32;;;;;;;8.03;6.37;;;;;;;16.15;81.18;99652.02;2086317;83;21105;-73
2021/08/02 06:34:34;;;;;;;6.65;5.53;;;;;;;16.47;81.02;99652.03;2095863;82;21638;-73
2021/08/02 06:37:41;;;;;;;6.17;5.58;;;;;;;16.82;80.65;99639.03;2085732;82;21517;-77
2021/08/02 06:40:44;;;;;;;8.73;5.37;;;;;;;17.11;79.78;99648.77;2079209;83;21176;-71
2021/08/02 06:43:45;;;;;;;9.63;5.80;;;;;;;17.31;79.30;99653.94;2103297;82;21135;-72
2021/08/02 06:46:47;;;;;;;7.33;5.67;;;;;;;17.42;78.29;99651.33;2089790;83;21538;-73
2021/08/02 06:49:49;;;;;;;9.00;5.50;;;;;;;17.53;79.07;99657.82;2100158;82;23424;-73
2021/08/02 06:52:52;;;;;;;5.90;5.00;;;;;;;17.71;78.03;99657.02;2090851;83;21061;-74
2021/08/02 06:55:54;;;;;;;6.30;4.90;;;;;;;17.73;77.93;99652.23;2089502;82;22245;-75
2021/08/02 06:58:56;;;;;;;5.33;4.83;;;;;;;17.88;77.58;99651.89;2085129;82;21057;-74
2021/08/02 07:01:57;;;;;;;5.47;4.80;;;;;;;17.88;76.53;99662.62;2093763;82;21052;-75
2021/08/02 07:04:59;;;;;;;8.98;4.92;;;;;;;17.79;76.48;99659.41;2105400;82;21152;-73
2021/08/02 07:08:01;;;;;;;5.85;5.20;;;;;;;17.68;75.97;99662.80;2103544;82;21012;-76
2021/08/02 07:11:02;;;;;;;4.70;4.22;;;;;;;17.63;76.46;99664.02;2096218;82;21048;-73
2021/08/02 07:14:04;;;;;;;5.00;4.55;;;;;;;17.71;76.49;99667.75;2093158;82;21002;-74
2021/08/02 07:17:06;;;;;;;4.50;4.10;;;;;;;17.89;76.45;99663.73;2081421;82;21589;-74
2021/08/02 07:20:09;;;;;;;5.85;4.85;;;;;;;18.40;76.34;99666.16;2082987;82;21065;-75
2021/08/02 07:23:10;;;;;;;5.50;4.45;;;;;;;18.85;75.17;99663.83;2096984;82;21667;-74
2021/08/02 07:26:12;;;;;;;7.05;4.50;;;;;;;19.34;74.16;99671.67;2086724;83;21093;-73
2021/08/02 07:29:13;;;;;;;6.05;4.10;;;;;;;19.60;74.38;99676.57;2090438;82;21077;-73
2021/08/02 07:32:15;;;;;;;5.87;4.17;;;;;;;19.89;73.11;99676.66;2089607;83;21017;-76
2021/08/02 07:35:17;;;;;;;4.42;3.40;;;;;;;20.40;73.12;99680.31;2086651;82;21178;-73
2021/08/02 07:38:18;;;;;;;7.12;4.03;;;;;;;20.90;71.41;99681.48;2091247;82;21642;-76
2021/08/02 07:41:20;;;;;;;7.25;3.58;;;;;;;20.89;71.05;99679.82;2095322;82;22292;-75
2021/08/02 07:44:22;;;;;;;4.20;3.12;;;;;;;21.11;70.01;99693.39;2090823;83;21068;-76
2021/08/02 07:47:23;;;;;;;5.17;3.60;;;;;;;20.94;68.22;99684.77;2082188;82;21149;-78
2021/08/02 07:50:25;;;;;;;7.33;3.35;;;;;;;20.69;68.52;99697.83;2082618;82;21173;-73
2021/08/02 07:53:26;;;;;;;3.92;3.40;;;;;;;20.41;68.12;99690.56;2087396;83;21773;-77
2021/08/02 07:56:29;;;;;;;3.67;3.37;;;;;;;20.21;68.32;99702.59;2083232;83;21565;-74
2021/08/02 07:59:31;;;;;;;4.40;3.50;;;;;;;19.93;67.97;99704.72;2091946;83;21176;-76
2021/08/02 08:02:32;;;;;;;3.72;3.42;;;;;;;19.78;68.13;99713.84;2076963;82;21060;-73
2021/08/02 08:05:34;;;;;;;4.45;3.30;;;;;;;19.87;67.93;99713.75;2096024;82;21112;-76
2021/08/02 08:08:35;;;;;;;5.62;3.25;;;;;;;20.41;68.31;99712.11;2109775;82;21139;-73
2021/08/02 08:11:37;;;;;;;4.70;3.70;;;;;;;20.97;67.34;99713.94;2087100;82;21076;-74
2021/08/02 08:14:39;;;;;;;5.12;3.10;;;;;;;20.92;66.06;99709.84;2093635;82;21698;-72
2021/08/02 08:17:41;;;;;;;3.85;3.08;;;;;;;20.72;65.23;99713.52;2086817;82;21098;-75
2021/08/02 08:20:42;;;;;;;5.60;3.22;;;;;;;20.62;64.42;99714.70;2090453;82;21071;-74
2021/08/02 08:23:44;;;;;;;3.52;2.72;;;;;;;20.50;64.13;99718.23;2089746;82;21076;-79
2021/08/02 08:26:45;;;;;;;3.77;3.30;;;;;;;20.42;65.26;99732.09;2078101;83;21080;-74
2021/08/02 08:29:47;;;;;;;4.33;3.08;;;;;;;20.54;65.27;99722.11;2084963;83;21091;-76
2021/08/02 08:32:49;;;;;;;5.75;3.62;;;;;;;20.66;64.95;99722.58;2084097;83;21739;-73
2021/08/02 08:35:50;;;;;;;7.92;3.15;;;;;;;21.04;64.89;99729.98;2096218;82;21075;-72
2021/08/02 08:38:52;;;;;;;3.02;2.77;;;;;;;21.35;63.98;99723.72;2079711;82;21026;-74
2021/08/02 08:41:58;;;;;;;2.58;2.37;;;;;;;21.44;63.17;99726.30;2106408;82;21120;-75
2021/08/02 08:45:00;;;;;;;3.30;3.00;;;;;;;21.31;62.13;99725.26;2082721;82;21161;-73
2021/08/02 08:48:01;;;;;;;3.83;3.15;;;;;;;21.07;62.95;99723.28;2098941;83;21081;-73
2021/08/02 08:51:04;;;;;;;3.35;3.05;;;;;;;20.81;63.07;99730.95;2104108;83;20986;-75
2021/08/02 08:54:06;;;;;;;4.90;3.00;;;;;;;20.81;63.26;99729.06;2095418;82;21069;-73
2021/08/02 08:57:11;;;;;;;3.20;2.90;;;;;;;20.79;63.20;99730.36;2086391;82;21065;-75
2021/08/02 09:00:25;;;;;;;3.17;2.87;;;;;;;20.84;63.74;99732.34;2083611;83;21001;-73
2021/08/02 09:03:28;;;;;;;2.95;2.70;;;;;;;20.82;63.29;99733.38;2074448;83;21108;-72
2021/08/02 09:06:30;;;;;;;4.15;2.98;;;;;;;21.09;63.31;99731.92;2085673;83;21105;-73
2021/08/02 09:09:35;;;;;;;3.42;2.12;;;;;;;21.41;62.62;99730.31;2089752;82;21587;-73
2021/08/02 09:12:51;;;;;;;4.05;2.70;;;;;;;21.92;62.99;99735.06;2107963;82;21036;-75
2021/08/02 09:15:54;;;;;;;3.85;2.83;;;;;;;22.56;61.89;99735.02;2098272;82;21716;-72
2021/08/02 09:19:08;;;;;;;2.62;2.42;;;;;;;22.46;60.06;99732.20;2089877;83;21033;-73
2021/08/02 09:22:09;;;;;;;2.60;2.40;;;;;;;21.93;59.97;99747.52;2084362;82;22060;-73
2021/08/02 09:25:15;;;;;;;3.55;2.42;;;;;;;21.58;60.38;99747.02;2095523;82;21025;-73
2021/08/02 09:28:23;;;;;;;2.40;2.20;;;;;;;21.18;60.01;99752.05;2081694;81;21006;-73
2021/08/02 09:31:48;;;;;;;4.78;2.40;;;;;;;20.84;60.32;99751.22;2085327;82;21600;-73
2021/08/02 09:34:50;;;;;;;5.87;2.60;;;;;;;20.75;61.08;99754.81;2088721;82;21039;-76
2021/08/02 09:37:58;;;;;;;2.70;2.50;;;;;;;20.84;61.62;99755.26;2100286;82;21065;-75
2021/08/02 09:41:00;;;;;;;3.15;2.60;;;;;;;21.10;61.51;99754.62;2081773;83;21075;-74
2021/08/02 09:44:02;;;;;;;2.92;2.72;;;;;;;21.45;60.88;99745.47;2094689;82;21058;-73
2021/08/02 09:47:07;;;;;;;2.72;2.52;;;;;;;21.66;60.74;99742.55;2070069;83;21122;-73
2021/08/02 09:50:10;;;;;;;5.53;2.70;;;;;;;22.07;60.02;99741.17;2089352;82;21544;-75
2021/08/02 09:53:18;;;;;;;5.83;2.70;;;;;;;22.11;58.81;99743.67;2092197;83;21511;-75
2021/08/02 09:56:32;;;;;;;4.47;2.52;;;;;;;21.89;58.43;99745.55;2104988;82;21037;-74
2021/08/02 09:59:30;;;;;;;4.33;2.95;;;;;;;21.57;57.63;99748.91;2087136;82;21105;-74
2021/08/02 10:02:32;;;;;;;3.72;3.17;;;;;;;21.21;58.45;99754.26;2071223;83;21413;-76
2021/08/02 10:05:37;;;;;;;3.33;3.12;;;;;;;21.11;58.67;99747.34;2084967;83;21095;-75
2021/08/02 10:08:40;;;;;;;3.67;3.37;;;;;;;21.07;59.01;99744.32;2094083;82;22470;-77
2021/08/02 10:11:42;;;;;;;3.80;3.00;;;;;;;21.05;58.78;99744.55;2089480;82;21105;-74
2021/08/02 10:14:44;;;;;;;4.80;3.20;;;;;;;21.11;59.09;99744.64;2099773;81;21104;-75
2021/08/02 10:17:49;;;;;;;4.22;3.47;;;;;;;21.20;59.54;99745.86;2088469;82;21084;-75
2021/08/02 10:21:04;;;;;;;3.52;3.22;;;;;;;21.28;58.83;99738.70;2092319;82;21679;-78
2021/08/02 10:24:15;;;;;;;5.55;3.52;;;;;;;21.37;58.86;99745.38;2091743;82;21113;-76
2021/08/02 10:27:29;;;;;;;3.77;2.75;;;;;;;21.63;59.36;99733.59;2101859;82;21632;-79
2021/08/02 10:30:31;;;;;;;3.25;3.00;;;;;;;21.72;58.40;99730.75;2091893;82;21094;-73
2021/08/02 10:33:36;;;;;;;3.45;2.87;;;;;;;21.68;58.07;99741.74;2079601;83;22308;-73
2021/08/02 10:36:38;;;;;;;4.10;3.40;;;;;;;21.72;57.56;99734.80;2079917;82;21049;-74
2021/08/02 10:39:40;;;;;;;4.00;3.60;;;;;;;21.75;57.65;99737.00;2078144;83;21087;-73
2021/08/02 10:42:48;;;;;;;3.50;3.20;;;;;;;21.82;57.05;99733.59;2096972;83;21029;-73
2021/08/02 10:45:51;;;;;;;3.35;3.05;;;;;;;21.97;58.15;99738.91;2099149;82;21100;-73
2021/08/02 10:48:57;;;;;;;6.47;3.87;;;;;;;22.27;57.52;99735.25;2085914;82;22243;-73
2021/08/02 10:52:00;;;;;;;4.37;3.67;;;;;;;22.48;56.69;99738.98;2090035;83;21081;-74
2021/08/02 10:55:14;;;;;;;4.45;4.05;;;;;;;22.70;56.26;99738.94;2101560;82;21481;-74
2021/08/02 10:58:30;;;;;;;5.58;4.03;;;;;;;22.56;55.55;99740.42;2089609;82;21025;-74
2021/08/02 11:01:32;;;;;;;4.00;3.70;;;;;;;22.60;56.33;99737.48;2081932;83;21037;-73
2021/08/02 11:04:33;;;;;;;3.42;3.22;;;;;;;22.86;56.26;99739.07;2077912;83;21049;-73
2021/08/02 11:07:35;;;;;;;3.17;2.95;;;;;;;22.79;55.63;99736.05;2089195;82;22311;-73
2021/08/02 11:10:40;;;;;;;5.37;3.33;;;;;;;23.07;56.11;99727.39;2079216;83;21030;-73
2021/08/02 11:13:41;;;;;;;3.30;3.00;;;;;;;23.58;55.72;99726.38;2096332;82;21058;-75
2021/08/02 11:16:47;;;;;;;4.28;3.08;;;;;;;23.94;54.51;99716.58;2074194;83;21131;-73
2021/08/02 11:19:59;;;;;;;3.42;3.12;;;;;;;24.11;53.47;99721.79;2091951;83;21090;-75
2021/08/02 11:23:01;;;;;;;2.98;2.77;;;;;;;23.73;52.65;99728.93;2083114;82;21108;-73
2021/08/02 11:26:08;;;;;;;5.62;3.33;;;;;;;23.16;53.50;99736.66;2082961;83;21148;-73
2021/08/02 11:29:20;;;;;;;4.75;3.05;;;;;;;23.17;53.70;99729.34;2083406;82;21116;-72
2021/08/02 11:32:23;;;;;;;3.08;2.77;;;;;;;23.11;53.48;99724.44;2103450;82;21068;-75
2021/08/02 11:35:36;;;;;;;3.12;2.85;;;;;;;22.97;52.82;99734.06;2068456;82;21089;-73
2021/08/02 11:38:39;;;;;;;3.12;2.75;;;;;;;22.82;52.99;99730.12;2094473;82;21101;-72
2021/08/02 11:41:41;;;;;;;6.58;2.92;;;;;;;22.90;53.18;99729.39;2083681;82;21071;-71
2021/08/02 11:44:45;;;;;;;4.37;2.77;;;;;;;22.77;52.54;99729.26;2082818;82;21565;-73
2021/08/02 11:47:47;;;;;;;3.75;3.12;;;;;;;22.49;53.17;99731.14;2096728;82;21132;-72
2021/08/02 11:50:49;;;;;;;3.12;2.83;;;;;;;22.28;53.52;99730.66;2090863;83;21521;-73
2021/08/02 11:53:51;;;;;;;9.33;3.40;;;;;;;22.49;54.30;99731.69;2082249;83;21052;-75
2021/08/02 11:56:54;;;;;;;2.87;2.58;;;;;;;22.96;54.08;99729.73;2087127;82;21048;-72
2021/08/02 12:00:00;;;;;;;2.95;2.20;;;;;;;23.20;53.46;99721.55;2103830;81;21031;-73
2021/08/02 12:03:11;;;;;;;5.45;2.60;;;;;;;23.22;53.45;99716.67;2097445;82;21121;-72
2021/08/02 12:06:13;;;;;;;5.05;2.62;;;;;;;23.29;53.04;99719.72;2095867;82;21659;-72
2021/08/02 12:09:15;;;;;;;8.68;2.50;;;;;;;23.31;52.52;99719.70;2099323;82;21078;-74
2021/08/02 12:12:23;;;;;;;3.52;2.33;;;;;;;23.26;51.83;99729.17;2099864;82;21079;-73
2021/08/02 12:15:26;;;;;;;6.50;3.30;;;;;;;22.98;52.14;99741.93;2095367;82;21132;-74
2021/08/02 12:18:29;;;;;;;4.55;2.33;;;;;;;22.31;52.32;99750.42;2081986;83;21164;-72
2021/08/02 12:21:32;;;;;;;5.80;2.85;;;;;;;21.60;52.98;99755.70;2087899;82;21140;-72
2021/08/02 12:24:34;;;;;;;7.65;3.55;;;;;;;21.05;54.32;99761.27;2090878;82;22398;-72
2021/08/02 12:27:36;;;;;;;10.05;4.03;;;;;;;20.73;55.50;99762.34;2103188;82;21163;-72
2021/08/02 12:30:39;;;;;;;6.60;4.28;;;;;;;20.56;56.88;99769.04;2085492;82;21112;-73
2021/08/02 12:33:40;;;;;;;6.22;4.22;;;;;;;20.18;57.45;99765.55;2083632;83;21044;-72
2021/08/02 12:36:42;;;;;;;4.60;4.05;;;;;;;19.83;58.10;99763.22;2097817;82;21327;-72
2021/08/02 13:01:20;;;;;;;4.12;3.65;;;;;;;20.11;59.60;99781.33;2130393;81;21088;-73
2021/08/02 13:04:21;;;;;;;5.05;4.35;;;;;;;19.86;59.85;99784.28;2143066;81;21133;-73
2021/08/02 13:07:24;;;;;;;5.20;4.22;;;;;;;19.75;60.09;99797.76;2142389;81;21048;-74
2021/08/02 13:10:31;;;;;;;5.12;4.55;;;;;;;19.67;60.58;99801.61;2137090;81;21588;-74
2021/08/02 13:13:30;;;;;;;4.80;4.05;;;;;;;19.58;61.08;99807.84;2140802;81;21200;-72
2021/08/02 13:16:32;;;;;;;5.10;4.70;;;;;;;19.57;61.65;99810.25;2145007;81;21101;-74
2021/08/02 13:19:33;;;;;;;9.88;4.70;;;;;;;19.57;61.94;99806.21;2129699;81;21025;-72
2021/08/02 13:22:58;;;;;;;4.35;3.98;;;;;;;19.59;62.10;99812.69;2141240;81;21012;-74
2021/08/02 13:29:01;;;;;;;2.80;2.60;;;;;;;19.53;61.27;99802.86;2154181;81;21062;-73
2021/08/02 13:32:07;;;;;;;2.52;2.20;;;;;;;19.48;60.72;99804.39;2146170;81;21042;-74
2021/08/02 13:35:09;;;;;;;2.92;2.60;;;;;;;19.49;60.27;99803.86;2127651;81;21042;-74
2021/08/02 13:38:10;;;;;;;2.70;2.50;;;;;;;19.55;60.14;99804.27;2151407;81;21496;-74
2021/08/02 13:41:12;;;;;;;4.80;2.85;;;;;;;19.61;60.31;99804.68;2125732;81;21059;-73
2021/08/02 13:44:13;;;;;;;4.53;2.92;;;;;;;19.78;60.80;99808.05;2139832;81;21115;-74
2021/08/02 13:47:15;;;;;;;3.30;3.05;;;;;;;19.95;60.51;99798.20;2125147;81;21039;-74
2021/08/02 13:50:16;;;;;;;3.25;3.00;;;;;;;20.03;60.20;99796.50;2131998;81;21059;-73
2021/08/02 13:53:17;;;;;;;3.65;3.12;;;;;;;20.10;60.11;99799.05;2131576;81;21040;-74
2021/08/02 13:56:19;;;;;;;5.70;3.70;;;;;;;20.31;60.41;99801.66;2147569;81;21082;-73
2021/08/02 13:59:21;;;;;;;3.55;3.10;;;;;;;20.63;60.37;99792.61;2150614;81;21580;-74
2021/08/02 14:02:22;;;;;;;4.72;3.40;;;;;;;20.85;59.98;99792.75;2126123;81;20977;-74
2021/08/02 14:05:24;;;;;;;3.30;2.98;;;;;;;20.95;59.71;99796.17;2157608;80;20982;-74
2021/08/02 14:08:26;;;;;;;4.15;2.80;;;;;;;21.23;59.65;99788.03;2124612;81;21043;-73
2021/08/02 14:11:27;;;;;;;3.22;3.00;;;;;;;21.41;58.39;99784.28;2175140;79;21064;-73
2021/08/02 14:14:32;;;;;;;2.90;2.70;;;;;;;21.38;57.69;99794.77;2169581;80;21034;-73
2021/08/02 14:18:06;;;;;;;2.77;2.22;;;;;;;21.36;56.86;99784.70;2173262;79;21558;-74
2021/08/02 14:21:12;;;;;;;2.52;2.33;;;;;;;21.36;56.82;99787.41;2169922;79;21677;-75
2021/08/02 14:24:12;;;;;;;4.00;1.95;;;;;;;21.49;56.65;99785.22;2161058;79;21499;-74
2021/08/02 14:27:14;;;;;;;2.50;2.30;;;;;;;21.69;55.76;99782.01;2138796;80;21037;-74
2021/08/02 14:30:16;;;;;;;2.77;2.47;;;;;;;21.85;55.70;99785.75;2136810;80;21038;-74
2021/08/02 14:33:18;;;;;;;3.52;2.10;;;;;;;21.93;54.66;99784.48;2137462;81;21055;-75
2021/08/02 14:36:21;;;;;;;3.42;2.30;;;;;;;21.78;54.03;99790.50;2138616;81;20986;-75
2021/08/02 14:39:25;;;;;;;2.40;2.20;;;;;;;21.75;53.82;99786.14;2136201;81;20988;-75
2021/08/02 14:42:32;;;;;;;2.30;2.10;;;;;;;21.73;53.77;99788.26;2147303;81;21157;-75
2021/08/02 14:45:41;;;;;;;2.22;2.02;;;;;;;21.74;53.66;99792.08;2134567;81;21051;-75
2021/08/02 14:48:49;;;;;;;2.83;2.30;;;;;;;21.60;52.22;99785.39;2140382;81;20985;-74
2021/08/02 14:51:53;;;;;;;2.42;2.12;;;;;;;21.55;51.91;99785.31;2143823;81;21101;-76